createdAt,value
2022-12-04T00:02:22.929Z,101128.81
2022-12-04T00:04:51.082Z,101125.75
2022-12-04T00:07:18.546Z,101124.94
2022-12-04T00:09:45.327Z,101123.00
2022-12-04T00:12:11.695Z,101121.06
2022-12-04T00:15:00.822Z,101122.19
2022-12-04T00:17:25.582Z,101127.69
2022-12-04T00:19:52.125Z,101122.47
2022-12-04T00:22:21.057Z,101119.41
2022-12-04T00:24:47.528Z,101126.06
2022-12-04T00:27:14.053Z,101121.06
2022-12-04T00:29:41.817Z,101113.09
2022-12-04T00:32:08.260Z,101116.97
2022-12-04T00:34:34.630Z,101114.22
2022-12-04T00:37:00.961Z,101115.03
2022-12-04T00:39:27.357Z,101116.97
2022-12-04T00:41:53.893Z,101111.44
2022-12-04T00:44:21.694Z,101114.22
2022-12-04T00:46:48.309Z,101108.38
2022-12-04T00:49:14.649Z,101114.72
2022-12-04T00:51:40.985Z,101107.56
2022-12-04T00:54:07.332Z,101112.28
2022-12-04T00:56:33.731Z,101109.50
2022-12-04T00:59:01.607Z,101099.56
2022-12-04T01:01:29.246Z,101104.28
2022-12-04T01:03:55.843Z,101108.69
2022-12-04T01:06:25.535Z,101100.69
2022-12-04T01:08:53.455Z,101096.53
2022-12-04T01:11:22.168Z,101094.59
2022-12-04T01:13:50.011Z,101099.81
2022-12-04T01:16:23.026Z,101096.53
2022-12-04T01:18:50.275Z,101087.16
2022-12-04T01:21:17.532Z,101101.75
2022-12-04T01:23:44.196Z,101100.94
2022-12-04T01:26:11.141Z,101092.66
2022-12-04T01:28:39.062Z,101099.81
2022-12-04T01:31:09.107Z,101097.06
2022-12-04T01:33:37.160Z,101109.72
2022-12-04T01:36:07.254Z,101102.25
2022-12-04T01:38:34.801Z,101103.13
2022-12-04T01:41:01.476Z,101100.06
2022-12-04T01:43:30.770Z,101108.03
2022-12-04T01:45:58.863Z,101106.91
2022-12-04T01:48:32.046Z,101096.72
2022-12-04T01:51:04.912Z,101100.78
2022-12-04T01:53:35.070Z,101099.69
2022-12-04T01:56:03.329Z,101098.84
2022-12-04T01:58:33.140Z,101102.44
2022-12-04T02:01:08.394Z,101092.22
2022-12-04T02:03:36.207Z,101106.56
2022-12-04T02:06:02.740Z,101091.34
2022-12-04T02:08:32.431Z,101086.63
2022-12-04T02:11:10.034Z,101095.75
2022-12-04T02:13:50.371Z,101087.19
2022-12-04T02:16:34.512Z,101089.63
2022-12-04T02:19:20.812Z,101079.41
2022-12-04T02:21:53.462Z,101093.19
2022-12-04T02:24:48.281Z,101084.41
2022-12-04T02:27:42.329Z,101083.28
2022-12-04T02:30:11.688Z,101090.44
2022-12-04T02:33:07.933Z,101085.53
2022-12-04T02:35:40.373Z,101084.94
2022-12-04T02:38:14.242Z,101091.56
2022-12-04T02:41:06.258Z,101088.88
2022-12-04T02:43:54.566Z,101072.03
2022-12-04T02:46:41.518Z,101084.72
2022-12-04T02:49:14.579Z,101081.72
2022-12-04T02:51:46.813Z,101078.97
2022-12-04T02:54:29.368Z,101076.78
2022-12-04T02:56:58.160Z,101080.38
2022-12-04T02:59:35.710Z,101073.22
2022-12-04T03:02:09.571Z,101081.50
2022-12-04T03:04:39.474Z,101083.94
2022-12-04T03:07:18.659Z,101073.53
2022-12-04T03:09:50.145Z,101080.38
2022-12-04T03:12:29.656Z,101083.13
2022-12-04T03:15:05.587Z,101083.44
2022-12-04T03:17:47.215Z,101084.56
2022-12-04T03:20:15.368Z,101085.06
2022-12-04T03:22:45.996Z,101085.38
2022-12-04T03:25:14.038Z,101083.44
2022-12-04T03:28:05.141Z,101084.84
2022-12-04T03:30:40.335Z,101077.41
2022-12-04T03:33:18.514Z,101088.94
2022-12-04T03:35:52.388Z,101075.47
2022-12-04T03:38:30.220Z,101082.94
2022-12-04T03:41:14.861Z,101085.69
2022-12-04T03:43:50.908Z,101078.22
2022-12-04T03:46:59.507Z,101073.81
2022-12-04T03:49:44.494Z,101073.22
2022-12-04T03:52:49.980Z,101073.53
2022-12-04T03:55:25.628Z,101081.50
2022-12-04T03:57:56.745Z,101077.63
2022-12-04T04:00:23.495Z,101074.84
2022-12-04T04:02:57.390Z,101075.97
2022-12-04T04:05:26.386Z,101075.97
2022-12-04T04:07:56.620Z,101069.66
2022-12-04T04:10:26.454Z,101080.97
2022-12-04T04:13:17.398Z,101081.81
2022-12-04T04:16:08.277Z,101080.97
2022-12-04T04:18:53.570Z,101084.25
2022-12-04T04:21:44.703Z,101075.47
2022-12-04T04:24:26.881Z,101097.53
2022-12-04T04:26:55.084Z,101100.78
2022-12-04T04:29:21.575Z,101093.34
2022-12-04T04:32:12.888Z,101093.97
2022-12-04T04:34:59.016Z,101090.91
2022-12-04T04:37:53.230Z,101095.88
2022-12-04T04:40:27.416Z,101090.91
2022-12-04T04:42:57.319Z,101088.94
2022-12-04T04:45:31.748Z,101085.88
2022-12-04T04:48:10.793Z,101082.63
2022-12-04T04:50:38.630Z,101090.28
2022-12-04T04:53:10.881Z,101085.88
2022-12-04T04:55:38.367Z,101082.53
2022-12-04T04:58:10.550Z,101088.06
2022-12-04T05:00:38.154Z,101079.22
2022-12-04T05:03:05.212Z,101079.72
2022-12-04T05:05:31.851Z,101075.84
2022-12-04T05:07:58.386Z,101071.13
2022-12-04T05:10:24.951Z,101067.25
2022-12-04T05:12:51.265Z,101077.19
2022-12-04T05:15:17.561Z,101081.59
2022-12-04T05:17:43.892Z,101078.84
2022-12-04T05:20:10.637Z,101078.84
2022-12-04T05:22:37.404Z,101071.69
2022-12-04T05:25:05.419Z,101068.09
2022-12-04T05:27:31.986Z,101066.16
2022-12-04T05:29:59.069Z,101070.00
2022-12-04T05:32:28.297Z,101062.88
2022-12-04T05:34:55.809Z,101060.91
2022-12-04T05:37:22.283Z,101052.13
2022-12-04T05:39:49.123Z,101055.72
2022-12-04T05:42:15.650Z,101054.91
2022-12-04T05:44:43.079Z,101061.22
2022-12-04T05:47:10.123Z,101059.28
2022-12-04T05:49:36.777Z,101055.72
2022-12-04T05:52:04.948Z,101055.41
2022-12-04T05:54:32.272Z,101047.13
2022-12-04T05:56:59.165Z,101050.72
2022-12-04T05:59:25.571Z,101058.97
2022-12-04T06:01:52.205Z,101055.41
2022-12-04T06:04:18.697Z,101057.06
2022-12-04T06:06:45.069Z,101061.47
2022-12-04T06:09:11.973Z,101061.75
2022-12-04T06:11:42.895Z,101067.56
2022-12-04T06:14:12.553Z,101060.91
2022-12-04T06:16:42.530Z,101067.25
2022-12-04T06:19:15.296Z,101067.25
2022-12-04T06:21:44.604Z,101067.78
2022-12-04T06:24:16.927Z,101065.84
2022-12-04T06:27:11.306Z,101073.53
2022-12-04T06:29:31.005Z,101071.28
2022-12-04T06:31:57.514Z,101067.41
2022-12-04T06:34:25.510Z,101068.22
2022-12-04T06:36:52.048Z,101066.00
2022-12-04T06:39:19.382Z,101066.53
2022-12-04T06:41:47.408Z,101056.31
2022-12-04T06:44:17.106Z,101064.56
2022-12-04T06:46:46.847Z,101058.78
2022-12-04T06:49:13.876Z,101056.03
2022-12-04T06:51:40.765Z,101057.66
2022-12-04T06:54:07.523Z,101059.28
2022-12-04T06:56:34.859Z,101062.34
2022-12-04T06:59:02.977Z,101066.75
2022-12-04T07:01:31.620Z,101064.31
2022-12-04T07:03:58.631Z,101066.75
2022-12-04T07:06:28.486Z,101076.16
2022-12-04T07:09:04.674Z,101068.69
2022-12-04T07:11:31.387Z,101069.50
2022-12-04T07:13:57.833Z,101070.31
2022-12-04T07:16:26.033Z,101065.63
2022-12-04T07:18:56.728Z,101077.47
2022-12-04T07:21:25.787Z,101074.72
2022-12-04T07:23:54.884Z,101079.13
2022-12-04T07:26:23.673Z,101073.31
2022-12-04T07:28:54.835Z,101085.16
2022-12-04T07:31:23.836Z,101081.59
2022-12-04T07:33:51.138Z,101080.47
2022-12-04T07:36:20.219Z,101073.31
2022-12-04T07:38:47.169Z,101071.88
2022-12-04T07:41:14.955Z,101093.69
2022-12-04T07:43:42.224Z,101080.69
2022-12-04T07:46:15.885Z,101073.53
2022-12-04T07:48:43.376Z,101073.25
2022-12-04T07:51:16.039Z,101069.34
2022-12-04T07:53:44.357Z,101073.75
2022-12-04T07:56:12.034Z,101079.81
2022-12-04T07:58:38.813Z,101080.00
2022-12-04T08:01:17.556Z,101083.66
2022-12-04T08:03:48.521Z,101077.56
2022-12-04T08:06:19.294Z,101081.13
2022-12-04T08:08:47.015Z,101081.13
2022-12-04T08:11:16.125Z,101080.00
2022-12-04T08:13:42.521Z,101083.31
2022-12-04T08:16:10.961Z,101079.41
2022-12-04T08:18:37.367Z,101091.81
2022-12-04T08:21:17.083Z,101082.09
2022-12-04T08:23:44.186Z,101084.53
2022-12-04T08:26:11.153Z,101080.97
2022-12-04T08:28:38.523Z,101088.16
2022-12-04T08:31:19.851Z,101083.22
2022-12-04T08:33:47.877Z,101080.69
2022-12-04T08:36:17.100Z,101082.91
2022-12-04T08:38:43.426Z,101090.59
2022-12-04T08:41:12.459Z,101080.69
2022-12-04T08:43:38.834Z,101079.25
2022-12-04T08:46:08.188Z,101088.88
2022-12-04T08:48:34.878Z,101094.09
2022-12-04T08:51:01.933Z,101088.25
2022-12-04T08:53:28.515Z,101093.19
2022-12-04T08:55:55.143Z,101083.78
2022-12-04T08:58:22.557Z,101094.25
2022-12-04T09:00:49.694Z,101090.34
2022-12-04T09:03:18.457Z,101091.97
2022-12-04T09:05:48.813Z,101088.63
2022-12-04T09:08:17.565Z,101096.09
2022-12-04T09:10:44.528Z,101093.84
2022-12-04T09:13:11.338Z,101092.44
2022-12-04T09:15:40.868Z,101101.22
2022-12-04T09:18:10.080Z,101097.34
2022-12-04T09:20:36.802Z,101099.50
2022-12-04T09:23:05.474Z,101103.09
2022-12-04T09:25:35.513Z,101105.53
2022-12-04T09:28:01.858Z,101106.06
2022-12-04T09:30:31.320Z,101107.38
2022-12-04T09:32:57.877Z,101103.53
2022-12-04T09:35:24.522Z,101097.38
2022-12-04T09:37:50.914Z,101105.06
2022-12-04T09:40:37.604Z,101097.91
2022-12-04T09:43:16.618Z,101092.59
2022-12-04T09:45:51.022Z,101100.28
2022-12-04T09:48:19.412Z,101102.72
2022-12-04T09:50:47.776Z,101094.97
2022-12-04T09:53:16.678Z,101094.66
2022-12-04T09:55:49.082Z,101093.28
2022-12-04T09:58:21.102Z,101087.75
2022-12-04T10:00:50.647Z,101089.38
2022-12-04T10:03:20.027Z,101089.06
2022-12-04T10:06:05.059Z,101086.84
2022-12-04T10:08:38.551Z,101091.25
2022-12-04T10:11:14.045Z,101085.41
2022-12-04T10:14:21.972Z,101083.78
2022-12-04T10:17:07.104Z,101072.09
2022-12-04T10:19:47.240Z,101083.13
2022-12-04T10:22:37.648Z,101090.31
2022-12-04T10:25:11.333Z,101086.94
2022-12-04T10:27:58.762Z,101085.84
2022-12-04T10:30:37.156Z,101077.22
2022-12-04T10:33:12.629Z,101069.66
2022-12-04T10:35:42.671Z,101083.69
2022-12-04T10:38:41.167Z,101095.88
2022-12-04T10:41:45.462Z,101098.34
2022-12-04T10:44:21.780Z,101093.63
2022-12-04T10:46:57.653Z,101086.16
2022-12-04T10:49:34.150Z,101081.75
2022-12-04T10:52:03.215Z,101072.81
2022-12-04T10:54:35.898Z,101075.59
2022-12-04T10:57:07.704Z,101071.41
2022-12-04T10:59:34.779Z,101067.50
2022-12-04T11:02:10.201Z,101060.03
2022-12-04T11:04:36.941Z,101057.81
2022-12-04T11:07:22.735Z,101042.03
2022-12-04T11:10:07.120Z,101038.94
2022-12-04T11:12:33.926Z,101030.56
2022-12-04T11:15:02.142Z,101029.72
2022-12-04T11:17:28.766Z,101023.88
2022-12-04T11:20:23.094Z,101015.59
2022-12-04T11:22:52.451Z,101019.69
2022-12-04T11:25:20.986Z,101014.16
2022-12-04T11:27:50.441Z,101014.16
2022-12-04T11:30:31.200Z,101013.03
2022-12-04T11:32:58.403Z,101016.63
2022-12-04T11:35:28.423Z,101017.75
2022-12-04T11:38:16.133Z,101019.50
2022-12-04T11:40:52.201Z,101018.34
2022-12-04T11:43:25.683Z,101015.31
2022-12-04T11:45:57.905Z,101020.31
2022-12-04T11:48:25.142Z,101026.38
2022-12-04T11:51:11.935Z,101025.34
2022-12-04T11:54:05.506Z,101022.25
2022-12-04T11:56:40.036Z,101015.59
2022-12-04T11:59:31.411Z,101007.00
2022-12-04T12:02:25.473Z,101011.09
2022-12-04T12:05:16.566Z,101017.16
2022-12-04T12:08:00.707Z,101007.41
2022-12-04T12:10:33.599Z,101007.41
2022-12-04T12:13:31.382Z,101003.81
2022-12-04T12:16:12.233Z,100989.38
2022-12-04T12:19:22.507Z,100991.94
2022-12-04T12:22:11.772Z,100995.53
2022-12-04T12:25:19.575Z,100993.56
2022-12-04T12:28:05.298Z,100995.72
2022-12-04T12:30:46.191Z,100993.78
2022-12-04T12:33:25.555Z,100990.19
2022-12-04T12:35:53.266Z,100990.69
2022-12-04T12:38:51.541Z,100986.63
2022-12-04T12:41:21.677Z,100987.31
2022-12-04T12:44:00.157Z,100981.47
2022-12-04T12:46:32.199Z,100968.47
2022-12-04T12:49:03.676Z,100973.69
2022-12-04T12:51:30.858Z,100972.88
2022-12-04T12:54:04.890Z,100957.09
2022-12-04T12:56:42.310Z,100959.56
2022-12-04T12:59:17.896Z,100963.63
2022-12-04T13:02:00.585Z,100969.47
2022-12-04T13:04:37.372Z,100960.84
2022-12-04T13:07:23.707Z,100942.63
2022-12-04T13:10:00.031Z,100940.19
2022-12-04T13:12:27.488Z,100945.13
2022-12-04T13:14:53.933Z,100932.38
2022-12-04T13:17:32.970Z,100928.63
2022-12-04T13:20:08.234Z,100919.69
2022-12-04T13:22:39.132Z,100910.25
2022-12-04T13:25:37.612Z,100915.78
2022-12-04T13:28:11.515Z,100916.59
2022-12-04T13:30:43.941Z,100914.16
2022-12-04T13:33:19.906Z,100907.00
2022-12-04T13:35:58.997Z,100899.53
2022-12-04T13:38:58.404Z,100916.44
2022-12-04T13:41:27.519Z,100925.22
2022-12-04T13:43:55.417Z,100931.56
2022-12-04T13:46:34.060Z,100933.84
2022-12-04T13:49:26.636Z,100938.03
2022-12-04T13:51:54.794Z,100939.38
2022-12-04T13:54:32.565Z,100953.53
2022-12-04T13:57:20.133Z,100950.75
2022-12-04T13:59:47.690Z,100968.34
2022-12-04T14:02:25.789Z,100984.94
2022-12-04T14:04:56.372Z,100978.78
2022-12-04T14:07:43.056Z,100979.94
2022-12-04T14:10:15.743Z,100973.75
2022-12-04T14:12:50.055Z,100978.19
2022-12-04T14:15:27.115Z,100983.19
2022-12-04T14:18:13.483Z,100978.47
2022-12-04T14:20:42.033Z,100989.25
2022-12-04T14:23:19.955Z,100982.91
2022-12-04T14:25:49.112Z,100983.06
2022-12-04T14:28:42.691Z,100982.38
2022-12-04T14:31:28.065Z,100971.84
2022-12-04T14:34:01.650Z,100972.78
2022-12-04T14:36:40.931Z,100971.09
2022-12-04T14:39:35.516Z,100972.88
2022-12-04T14:42:22.218Z,100966.50
2022-12-04T14:44:54.202Z,100968.16
2022-12-04T14:47:49.087Z,100965.41
2022-12-04T14:50:54.814Z,100955.44
2022-12-04T14:53:35.023Z,100948.00
2022-12-04T14:56:26.881Z,100956.91
2022-12-04T14:58:54.515Z,100950.75
2022-12-04T15:01:31.346Z,100945.22
2022-12-04T15:04:01.161Z,100946.34
2022-12-04T15:06:31.211Z,100946.66
2022-12-04T15:09:21.610Z,100945.84
2022-12-04T15:12:09.257Z,100944.50
2022-12-04T15:14:47.923Z,100949.53
2022-12-04T15:17:16.298Z,100956.69
2022-12-04T15:19:43.290Z,100947.09
2022-12-04T15:22:18.861Z,100955.19
2022-12-04T15:24:45.239Z,100952.09
2022-12-04T15:27:13.792Z,100962.66
2022-12-04T15:29:48.267Z,100962.34
2022-12-04T15:32:19.708Z,100949.88
2022-12-04T15:34:47.523Z,100957.34
2022-12-04T15:37:19.583Z,100952.75
2022-12-04T15:39:46.160Z,100946.38
2022-12-04T15:42:22.817Z,100949.44
2022-12-04T15:45:07.530Z,100950.09
2022-12-04T15:47:50.020Z,100947.81
2022-12-04T15:50:16.336Z,100948.94
2022-12-04T15:53:06.106Z,100955.09
2022-12-04T15:55:46.951Z,100950.91
2022-12-04T15:58:54.476Z,100955.91
2022-12-04T16:01:22.540Z,100952.00
2022-12-04T16:03:51.764Z,100947.31
2022-12-04T16:06:33.017Z,100950.69
2022-12-04T16:09:12.348Z,100956.72
2022-12-04T16:11:41.950Z,100961.16
2022-12-04T16:14:08.289Z,100965.00
2022-12-04T16:16:38.439Z,100963.06
2022-12-04T16:19:20.479Z,100956.53
2022-12-04T16:21:49.184Z,100954.59
2022-12-04T16:24:15.571Z,100951.84
2022-12-04T16:26:42.089Z,100962.38
2022-12-04T16:29:08.729Z,100961.06
2022-12-04T16:31:35.796Z,100970.47
2022-12-04T16:34:02.391Z,100975.47
2022-12-04T16:36:28.865Z,100980.19
2022-12-04T16:38:55.486Z,100986.03
2022-12-04T16:41:22.064Z,100991.56
2022-12-04T16:43:58.664Z,100989.09
2022-12-04T16:46:28.439Z,100981.13
2022-12-04T16:48:55.432Z,100991.34
2022-12-04T16:51:25.355Z,100996.88
2022-12-04T16:53:53.308Z,101000.47
2022-12-04T16:56:20.707Z,100999.97
2022-12-04T16:58:47.373Z,100995.53
2022-12-04T17:01:26.276Z,100994.22
2022-12-04T17:03:53.356Z,100998.31
2022-12-04T17:06:21.337Z,100998.84
2022-12-04T17:08:47.779Z,101012.66
2022-12-04T17:11:16.564Z,101018.69
2022-12-04T17:13:42.857Z,101013.97
2022-12-04T17:16:12.925Z,101016.44
2022-12-04T17:18:41.099Z,101009.78
2022-12-04T17:21:09.233Z,101020.03
2022-12-04T17:23:37.863Z,101015.31
2022-12-04T17:26:05.496Z,101008.34
2022-12-04T17:28:34.830Z,101006.41
2022-12-04T17:31:04.545Z,101004.75
2022-12-04T17:33:31.015Z,101001.16
2022-12-04T17:36:00.313Z,101014.19
2022-12-04T17:38:27.817Z,101017.25
2022-12-04T17:40:59.635Z,101023.91
2022-12-04T17:43:28.749Z,101018.38
2022-12-04T17:45:56.945Z,101018.69
2022-12-04T17:48:24.274Z,101023.91
2022-12-04T17:50:51.308Z,101018.06
2022-12-04T17:53:17.879Z,101029.44
2022-12-04T17:55:44.437Z,101034.66
2022-12-04T17:58:15.982Z,101028.91
2022-12-04T18:00:42.787Z,101021.75
2022-12-04T18:03:09.437Z,101022.06
2022-12-04T18:05:37.210Z,101026.25
2022-12-04T18:08:03.743Z,101019.09
2022-12-04T18:10:30.287Z,101012.22
2022-12-04T18:13:00.714Z,100999.53
2022-12-04T18:15:27.046Z,101010.91
2022-12-04T18:17:53.509Z,101006.50
2022-12-04T18:20:21.626Z,101004.03
2022-12-04T18:22:48.124Z,101012.34
2022-12-04T18:25:14.447Z,101007.63
2022-12-04T18:27:42.170Z,101012.66
2022-12-04T18:30:09.571Z,101019.00
2022-12-04T18:32:35.979Z,101015.41
2022-12-04T18:35:02.529Z,101016.53
2022-12-04T18:37:30.101Z,101011.28
2022-12-04T18:39:58.364Z,101014.06
2022-12-04T18:42:27.466Z,101004.97
2022-12-04T18:44:53.964Z,101012.16
2022-12-04T18:47:21.721Z,101014.06
2022-12-04T18:49:50.433Z,101007.44
2022-12-04T18:52:16.921Z,101008.53
2022-12-04T18:54:43.487Z,101003.84
2022-12-04T18:57:10.002Z,100995.56
2022-12-04T18:59:38.955Z,100998.63
2022-12-04T19:02:07.764Z,101005.78
2022-12-04T19:04:34.393Z,101001.38
2022-12-04T19:07:00.883Z,101001.38
2022-12-04T19:09:54.250Z,100996.16
2022-12-04T19:12:15.294Z,101004.47
2022-12-04T19:14:41.593Z,101000.88
2022-12-04T19:17:08.465Z,100996.50
2022-12-04T19:19:34.814Z,100999.25
2022-12-04T19:22:02.059Z,101008.63
2022-12-04T19:24:29.902Z,101010.59
2022-12-04T19:26:56.838Z,101000.34
2022-12-04T19:29:23.433Z,101006.72
2022-12-04T19:31:52.467Z,101012.75
2022-12-04T19:34:22.532Z,101006.91
2022-12-04T19:36:49.109Z,101014.06
2022-12-04T19:39:17.306Z,101014.91
2022-12-04T19:41:47.204Z,101012.16
2022-12-04T19:47:09.676Z,101015.72
2022-12-04T19:49:37.393Z,101012.16
2022-12-04T19:52:04.020Z,101011.28
2022-12-04T19:54:31.381Z,101018.50
2022-12-04T19:56:57.898Z,101014.59
2022-12-04T19:59:24.356Z,101011.84
2022-12-04T20:01:51.018Z,101023.38
2022-12-04T20:04:17.982Z,101018.66
2022-12-04T20:06:46.109Z,101028.91
2022-12-04T20:09:15.338Z,101024.50
2022-12-04T20:11:42.529Z,101027.28
2022-12-04T20:14:10.163Z,101022.88
2022-12-04T20:16:37.620Z,101027.28
2022-12-04T20:19:06.407Z,101028.09
2022-12-04T20:21:34.676Z,101023.38
2022-12-04T20:24:04.350Z,101027.81
2022-12-04T20:26:36.453Z,101013.34
2022-12-04T20:29:04.184Z,101017.75
2022-12-04T20:31:34.605Z,101021.34
2022-12-04T20:34:05.433Z,101010.81
2022-12-04T20:36:37.365Z,101019.09
2022-12-04T20:39:05.066Z,101012.97
2022-12-04T20:41:32.619Z,101016.53
2022-12-04T20:44:01.921Z,101019.31
2022-12-04T20:46:34.820Z,101019.31
2022-12-04T20:49:06.217Z,101013.78
2022-12-04T20:51:38.574Z,101018.50
2022-12-04T20:54:06.217Z,101008.25
2022-12-04T20:56:35.835Z,101004.97
2022-12-04T20:59:08.949Z,101013.78
2022-12-04T21:01:37.398Z,101001.06
2022-12-04T21:04:04.414Z,101004.34
2022-12-04T21:06:35.988Z,101008.97
2022-12-04T21:09:06.310Z,101004.56
2022-12-04T21:11:44.291Z,101003.22
2022-12-04T21:14:49.973Z,100999.34
2022-12-04T21:17:19.585Z,101005.69
2022-12-04T21:19:49.364Z,100994.94
2022-12-04T21:22:17.792Z,100996.88
2022-12-04T21:24:44.201Z,100985.34
2022-12-04T21:27:14.528Z,100988.91
2022-12-04T21:29:45.598Z,101000.78
2022-12-04T21:32:12.005Z,100996.06
2022-12-04T21:34:38.364Z,100996.88
2022-12-04T21:37:04.830Z,101001.28
2022-12-04T21:39:31.241Z,100993.00
2022-12-04T21:42:16.425Z,100989.91
2022-12-04T21:44:42.922Z,100990.75
2022-12-04T21:47:11.462Z,100992.38
2022-12-04T21:49:38.298Z,100994.34
2022-12-04T21:52:04.642Z,100986.75
2022-12-04T21:54:31.287Z,100990.66
2022-12-04T21:56:57.958Z,100985.94
2022-12-04T21:59:25.746Z,100988.16
2022-12-04T22:01:53.138Z,100997.59
2022-12-04T22:04:21.277Z,101001.50
2022-12-04T22:06:47.959Z,100996.78
2022-12-04T22:09:14.307Z,100995.97
2022-12-04T22:11:43.475Z,100997.28
2022-12-04T22:14:11.516Z,100998.94
2022-12-04T22:16:42.807Z,100994.22
2022-12-04T22:19:11.682Z,101004.16
2022-12-04T22:21:38.347Z,101010.16
2022-12-04T22:24:05.685Z,101008.75
2022-12-04T22:26:32.225Z,101009.06
2022-12-04T22:28:59.134Z,101019.81
2022-12-04T22:31:28.189Z,101019.28
2022-12-04T22:33:56.495Z,101020.13
2022-12-04T22:36:25.388Z,101016.72
2022-12-04T22:41:39.035Z,101029.13
2022-12-04T22:44:06.738Z,101022.78
2022-12-04T22:46:34.355Z,101024.72
2022-12-04T22:49:00.828Z,101024.72
2022-12-04T22:51:27.877Z,101031.91
2022-12-04T22:53:56.449Z,101031.91
2022-12-04T22:56:29.280Z,101028.31
2022-12-04T22:58:57.619Z,101026.38
2022-12-04T23:01:29.413Z,101028.31
2022-12-04T23:03:57.078Z,101029.13
2022-12-04T23:06:26.940Z,101031.06
2022-12-04T23:08:59.318Z,101024.72
2022-12-04T23:11:27.382Z,101031.06
2022-12-04T23:13:57.970Z,101025.56
2022-12-04T23:16:24.877Z,101024.41
2022-12-04T23:18:51.293Z,101028.81
2022-12-04T23:21:19.453Z,101022.47
2022-12-04T23:23:47.649Z,101029.63
2022-12-04T23:26:19.874Z,101024.09
2022-12-04T23:28:46.793Z,101015.19
2022-12-04T23:31:13.551Z,101016.31
2022-12-04T23:33:40.615Z,101012.44
2022-12-04T23:36:08.873Z,101012.44
2022-12-04T23:38:37.489Z,101024.00
2022-12-04T23:41:12.730Z,101012.63
2022-12-04T23:43:40.192Z,101014.28
2022-12-04T23:46:11.298Z,101019.81
2022-12-04T23:48:39.345Z,101022.56
2022-12-04T23:51:06.276Z,101023.69
2022-12-04T23:53:32.672Z,101020.09
2022-12-04T23:56:12.280Z,101019.91
2022-12-04T23:58:39.358Z,101021.53
